sensor_id;sensor_type;location;lat;lon;timestamp;temperature;humidity
10459;DHT22;5277;48.722;8.736;2023-03-23T00:01:53;11.40;99.90
10459;DHT22;5277;48.722;8.736;2023-03-23T00:04:19;11.40;99.90
10459;DHT22;5277;48.722;8.736;2023-03-23T00:06:46;11.40;99.90
10459;DHT22;5277;48.722;8.736;2023-03-23T00:09:14;11.50;99.90
10459;DHT22;5277;48.722;8.736;2023-03-23T00:11:41;11.60;99.80
10459;DHT22;5277;48.722;8.736;2023-03-23T00:14:07;11.60;99.80
10459;DHT22;5277;48.722;8.736;2023-03-23T00:16:39;11.60;99.90
10459;DHT22;5277;48.722;8.736;2023-03-23T00:19:07;11.70;99.80
10459;DHT22;5277;48.722;8.736;2023-03-23T00:21:37;11.70;99.40
10459;DHT22;5277;48.722;8.736;2023-03-23T00:24:07;11.80;99.50
10459;DHT22;5277;48.722;8.736;2023-03-23T00:26:35;11.80;99.20
10459;DHT22;5277;48.722;8.736;2023-03-23T00:29:04;11.80;99.10
10459;DHT22;5277;48.722;8.736;2023-03-23T00:31:30;11.90;99.20
10459;DHT22;5277;48.722;8.736;2023-03-23T00:34:01;12.00;99.40
10459;DHT22;5277;48.722;8.736;2023-03-23T00:36:27;11.90;99.30
10459;DHT22;5277;48.722;8.736;2023-03-23T00:38:54;11.90;99.30
10459;DHT22;5277;48.722;8.736;2023-03-23T00:41:23;12.00;99.20
10459;DHT22;5277;48.722;8.736;2023-03-23T00:43:52;11.90;99.20
10459;DHT22;5277;48.722;8.736;2023-03-23T00:46:18;11.90;99.00
10459;DHT22;5277;48.722;8.736;2023-03-23T00:48:46;11.90;99.20
10459;DHT22;5277;48.722;8.736;2023-03-23T00:51:12;11.90;99.00
10459;DHT22;5277;48.722;8.736;2023-03-23T00:53:41;12.00;99.10
10459;DHT22;5277;48.722;8.736;2023-03-23T00:56:08;12.00;99.10
10459;DHT22;5277;48.722;8.736;2023-03-23T00:58:35;12.00;99.00
10459;DHT22;5277;48.722;8.736;2023-03-23T01:01:00;12.00;99.10
10459;DHT22;5277;48.722;8.736;2023-03-23T01:03:26;12.00;99.10
10459;DHT22;5277;48.722;8.736;2023-03-23T01:05:53;12.00;99.20
10459;DHT22;5277;48.722;8.736;2023-03-23T01:08:20;12.00;99.20
10459;DHT22;5277;48.722;8.736;2023-03-23T01:10:47;12.00;99.20
10459;DHT22;5277;48.722;8.736;2023-03-23T01:13:13;11.90;99.50
10459;DHT22;5277;48.722;8.736;2023-03-23T01:15:39;11.80;99.50
10459;DHT22;5277;48.722;8.736;2023-03-23T01:18:05;11.80;99.80
10459;DHT22;5277;48.722;8.736;2023-03-23T01:20:31;11.80;99.90
10459;DHT22;5277;48.722;8.736;2023-03-23T01:22:58;11.70;99.80
10459;DHT22;5277;48.722;8.736;2023-03-23T01:25:29;11.70;99.90
10459;DHT22;5277;48.722;8.736;2023-03-23T01:27:55;11.70;99.70
10459;DHT22;5277;48.722;8.736;2023-03-23T01:30:21;11.70;99.80
10459;DHT22;5277;48.722;8.736;2023-03-23T01:32:47;11.60;99.90
10459;DHT22;5277;48.722;8.736;2023-03-23T01:35:13;11.60;99.90
10459;DHT22;5277;48.722;8.736;2023-03-23T01:37:39;11.60;99.90
10459;DHT22;5277;48.722;8.736;2023-03-23T01:40:05;11.60;99.90
10459;DHT22;5277;48.722;8.736;2023-03-23T01:42:33;11.50;99.80
10459;DHT22;5277;48.722;8.736;2023-03-23T01:47:46;11.50;99.90
10459;DHT22;5277;48.722;8.736;2023-03-23T01:50:14;11.40;99.90
10459;DHT22;5277;48.722;8.736;2023-03-23T01:52:40;11.40;99.90
10459;DHT22;5277;48.722;8.736;2023-03-23T01:55:06;11.30;99.90
10459;DHT22;5277;48.722;8.736;2023-03-23T01:57:32;11.30;99.90
10459;DHT22;5277;48.722;8.736;2023-03-23T02:00:03;11.30;99.90
10459;DHT22;5277;48.722;8.736;2023-03-23T02:02:47;11.30;99.90
10459;DHT22;5277;48.722;8.736;2023-03-23T02:05:20;11.30;99.90
10459;DHT22;5277;48.722;8.736;2023-03-23T02:07:48;11.30;99.90
10459;DHT22;5277;48.722;8.736;2023-03-23T02:10:15;11.20;99.90
10459;DHT22;5277;48.722;8.736;2023-03-23T02:12:40;11.10;99.90
10459;DHT22;5277;48.722;8.736;2023-03-23T02:15:06;11.00;99.90
10459;DHT22;5277;48.722;8.736;2023-03-23T02:17:50;11.00;99.90
10459;DHT22;5277;48.722;8.736;2023-03-23T02:20:49;11.00;99.90
10459;DHT22;5277;48.722;8.736;2023-03-23T02:23:39;10.90;99.90
10459;DHT22;5277;48.722;8.736;2023-03-23T02:26:20;10.90;99.90
10459;DHT22;5277;48.722;8.736;2023-03-23T02:32:22;10.70;99.90
10459;DHT22;5277;48.722;8.736;2023-03-23T02:34:56;10.70;99.90
10459;DHT22;5277;48.722;8.736;2023-03-23T02:37:39;10.60;99.90
10459;DHT22;5277;48.722;8.736;2023-03-23T02:40:12;10.60;99.90
10459;DHT22;5277;48.722;8.736;2023-03-23T02:42:43;10.50;99.90
10459;DHT22;5277;48.722;8.736;2023-03-23T02:45:11;10.40;99.90
10459;DHT22;5277;48.722;8.736;2023-03-23T02:47:39;10.40;99.90
10459;DHT22;5277;48.722;8.736;2023-03-23T02:50:10;10.40;99.90
10459;DHT22;5277;48.722;8.736;2023-03-23T02:52:38;10.40;99.90
10459;DHT22;5277;48.722;8.736;2023-03-23T02:55:06;10.40;99.90
10459;DHT22;5277;48.722;8.736;2023-03-23T02:57:32;10.40;99.90
10459;DHT22;5277;48.722;8.736;2023-03-23T02:59:58;10.40;99.90
10459;DHT22;5277;48.722;8.736;2023-03-23T03:02:28;10.50;99.90
10459;DHT22;5277;48.722;8.736;2023-03-23T03:10:07;10.50;99.90
10459;DHT22;5277;48.722;8.736;2023-03-23T03:12:56;10.50;99.90
10459;DHT22;5277;48.722;8.736;2023-03-23T03:15:31;10.50;99.90
10459;DHT22;5277;48.722;8.736;2023-03-23T03:18:06;10.60;99.90
10459;DHT22;5277;48.722;8.736;2023-03-23T03:20:38;10.50;99.90
10459;DHT22;5277;48.722;8.736;2023-03-23T03:23:06;10.50;99.90
10459;DHT22;5277;48.722;8.736;2023-03-23T03:25:33;10.50;99.90
10459;DHT22;5277;48.722;8.736;2023-03-23T03:27:59;10.50;99.90
10459;DHT22;5277;48.722;8.736;2023-03-23T03:30:28;10.40;99.90
10459;DHT22;5277;48.722;8.736;2023-03-23T03:32:57;10.40;99.90
10459;DHT22;5277;48.722;8.736;2023-03-23T03:35:26;10.40;99.90
10459;DHT22;5277;48.722;8.736;2023-03-23T03:37:52;10.40;99.90
10459;DHT22;5277;48.722;8.736;2023-03-23T03:40:20;10.40;99.90
10459;DHT22;5277;48.722;8.736;2023-03-23T03:42:46;10.40;99.90
10459;DHT22;5277;48.722;8.736;2023-03-23T03:45:18;10.30;99.90
10459;DHT22;5277;48.722;8.736;2023-03-23T03:47:44;10.30;99.90
10459;DHT22;5277;48.722;8.736;2023-03-23T03:50:10;10.30;99.90
10459;DHT22;5277;48.722;8.736;2023-03-23T03:52:36;10.30;99.90
10459;DHT22;5277;48.722;8.736;2023-03-23T03:55:04;10.30;99.90
10459;DHT22;5277;48.722;8.736;2023-03-23T03:57:30;10.30;99.90
10459;DHT22;5277;48.722;8.736;2023-03-23T03:59:56;10.30;99.90
10459;DHT22;5277;48.722;8.736;2023-03-23T04:02:22;10.10;99.90
10459;DHT22;5277;48.722;8.736;2023-03-23T04:04:48;10.10;99.90
10459;DHT22;5277;48.722;8.736;2023-03-23T04:07:14;10.20;99.90
10459;DHT22;5277;48.722;8.736;2023-03-23T04:09:45;10.20;99.90
10459;DHT22;5277;48.722;8.736;2023-03-23T04:12:14;10.20;99.90
10459;DHT22;5277;48.722;8.736;2023-03-23T04:14:40;10.30;99.90
10459;DHT22;5277;48.722;8.736;2023-03-23T04:17:06;10.30;99.90
10459;DHT22;5277;48.722;8.736;2023-03-23T04:19:34;10.20;99.90
10459;DHT22;5277;48.722;8.736;2023-03-23T04:22:03;10.30;99.90
10459;DHT22;5277;48.722;8.736;2023-03-23T04:24:28;10.20;99.90
10459;DHT22;5277;48.722;8.736;2023-03-23T04:26:57;10.20;99.90
10459;DHT22;5277;48.722;8.736;2023-03-23T04:29:23;10.30;99.90
10459;DHT22;5277;48.722;8.736;2023-03-23T04:31:49;10.30;99.90
10459;DHT22;5277;48.722;8.736;2023-03-23T04:34:16;10.30;99.90
10459;DHT22;5277;48.722;8.736;2023-03-23T04:36:43;10.30;99.90
10459;DHT22;5277;48.722;8.736;2023-03-23T04:39:09;10.30;99.90
10459;DHT22;5277;48.722;8.736;2023-03-23T04:41:39;10.30;99.90
10459;DHT22;5277;48.722;8.736;2023-03-23T04:44:06;10.40;99.90
10459;DHT22;5277;48.722;8.736;2023-03-23T04:46:32;10.40;99.90
10459;DHT22;5277;48.722;8.736;2023-03-23T04:48:58;10.40;99.90
10459;DHT22;5277;48.722;8.736;2023-03-23T04:51:25;10.40;99.90
10459;DHT22;5277;48.722;8.736;2023-03-23T04:53:52;10.40;99.90
10459;DHT22;5277;48.722;8.736;2023-03-23T04:56:19;10.40;99.90
10459;DHT22;5277;48.722;8.736;2023-03-23T04:58:45;10.50;99.90
10459;DHT22;5277;48.722;8.736;2023-03-23T05:01:11;10.50;99.90
10459;DHT22;5277;48.722;8.736;2023-03-23T05:03:40;10.60;99.90
10459;DHT22;5277;48.722;8.736;2023-03-23T05:06:06;10.50;99.90
10459;DHT22;5277;48.722;8.736;2023-03-23T05:08:32;10.40;99.90
10459;DHT22;5277;48.722;8.736;2023-03-23T05:10:59;10.50;99.90
10459;DHT22;5277;48.722;8.736;2023-03-23T05:13:27;10.40;99.90
10459;DHT22;5277;48.722;8.736;2023-03-23T05:15:53;10.40;99.90
10459;DHT22;5277;48.722;8.736;2023-03-23T05:18:18;10.40;99.90
10459;DHT22;5277;48.722;8.736;2023-03-23T05:20:46;10.40;99.90
10459;DHT22;5277;48.722;8.736;2023-03-23T05:23:12;10.40;99.90
10459;DHT22;5277;48.722;8.736;2023-03-23T05:25:38;10.40;99.90
10459;DHT22;5277;48.722;8.736;2023-03-23T05:28:09;10.40;99.90
10459;DHT22;5277;48.722;8.736;2023-03-23T05:30:38;10.50;99.90
10459;DHT22;5277;48.722;8.736;2023-03-23T05:33:05;10.50;99.90
10459;DHT22;5277;48.722;8.736;2023-03-23T05:35:30;10.50;99.90
10459;DHT22;5277;48.722;8.736;2023-03-23T05:37:56;10.60;99.90
10459;DHT22;5277;48.722;8.736;2023-03-23T05:40:25;10.60;99.90
10459;DHT22;5277;48.722;8.736;2023-03-23T05:42:51;10.60;99.90
10459;DHT22;5277;48.722;8.736;2023-03-23T05:45:17;10.60;99.90
10459;DHT22;5277;48.722;8.736;2023-03-23T05:47:44;10.60;99.90
10459;DHT22;5277;48.722;8.736;2023-03-23T05:50:11;10.60;99.90
10459;DHT22;5277;48.722;8.736;2023-03-23T05:52:38;10.70;99.90
10459;DHT22;5277;48.722;8.736;2023-03-23T05:55:05;10.70;99.90
10459;DHT22;5277;48.722;8.736;2023-03-23T05:57:31;10.70;99.90
10459;DHT22;5277;48.722;8.736;2023-03-23T05:59:56;10.70;99.90
10459;DHT22;5277;48.722;8.736;2023-03-23T06:02:23;10.80;99.90
10459;DHT22;5277;48.722;8.736;2023-03-23T06:04:50;10.80;99.90
10459;DHT22;5277;48.722;8.736;2023-03-23T06:07:15;10.80;99.90
10459;DHT22;5277;48.722;8.736;2023-03-23T06:09:41;10.90;99.90
10459;DHT22;5277;48.722;8.736;2023-03-23T06:12:08;10.80;99.90
10459;DHT22;5277;48.722;8.736;2023-03-23T06:14:35;10.90;99.90
10459;DHT22;5277;48.722;8.736;2023-03-23T06:17:01;10.90;99.90
10459;DHT22;5277;48.722;8.736;2023-03-23T06:19:26;10.90;99.90
10459;DHT22;5277;48.722;8.736;2023-03-23T06:21:54;11.00;99.90
10459;DHT22;5277;48.722;8.736;2023-03-23T06:24:20;10.90;99.90
10459;DHT22;5277;48.722;8.736;2023-03-23T06:26:46;10.90;99.90
10459;DHT22;5277;48.722;8.736;2023-03-23T06:29:13;10.90;99.90
10459;DHT22;5277;48.722;8.736;2023-03-23T06:31:48;10.90;99.90
10459;DHT22;5277;48.722;8.736;2023-03-23T06:34:14;11.00;99.90
10459;DHT22;5277;48.722;8.736;2023-03-23T06:36:40;11.00;99.90
10459;DHT22;5277;48.722;8.736;2023-03-23T06:39:06;11.10;99.90
10459;DHT22;5277;48.722;8.736;2023-03-23T06:41:32;11.20;99.90
10459;DHT22;5277;48.722;8.736;2023-03-23T06:43:59;11.20;99.90
10459;DHT22;5277;48.722;8.736;2023-03-23T06:46:25;11.30;99.90
10459;DHT22;5277;48.722;8.736;2023-03-23T06:48:51;11.40;99.90
10459;DHT22;5277;48.722;8.736;2023-03-23T06:51:17;11.40;99.90
10459;DHT22;5277;48.722;8.736;2023-03-23T06:53:43;11.50;99.90
10459;DHT22;5277;48.722;8.736;2023-03-23T06:56:09;11.50;99.90
10459;DHT22;5277;48.722;8.736;2023-03-23T06:58:35;11.50;99.90
10459;DHT22;5277;48.722;8.736;2023-03-23T07:01:01;11.50;99.90
10459;DHT22;5277;48.722;8.736;2023-03-23T07:03:27;11.50;99.90
10459;DHT22;5277;48.722;8.736;2023-03-23T07:05:54;11.50;99.90
10459;DHT22;5277;48.722;8.736;2023-03-23T07:08:20;11.60;99.90
10459;DHT22;5277;48.722;8.736;2023-03-23T07:10:46;11.50;99.90
10459;DHT22;5277;48.722;8.736;2023-03-23T07:13:11;11.60;99.90
10459;DHT22;5277;48.722;8.736;2023-03-23T07:15:39;11.60;99.90
10459;DHT22;5277;48.722;8.736;2023-03-23T07:18:04;11.60;99.90
10459;DHT22;5277;48.722;8.736;2023-03-23T07:20:30;11.70;99.90
10459;DHT22;5277;48.722;8.736;2023-03-23T07:22:56;11.70;99.90
10459;DHT22;5277;48.722;8.736;2023-03-23T07:25:21;11.70;99.90
10459;DHT22;5277;48.722;8.736;2023-03-23T07:27:47;11.80;99.90
10459;DHT22;5277;48.722;8.736;2023-03-23T07:30:13;11.80;99.90
10459;DHT22;5277;48.722;8.736;2023-03-23T07:32:40;11.90;99.90
10459;DHT22;5277;48.722;8.736;2023-03-23T07:35:07;12.00;99.90
10459;DHT22;5277;48.722;8.736;2023-03-23T07:37:33;12.00;99.90
10459;DHT22;5277;48.722;8.736;2023-03-23T07:39:59;12.10;99.90
10459;DHT22;5277;48.722;8.736;2023-03-23T07:42:24;12.10;99.90
10459;DHT22;5277;48.722;8.736;2023-03-23T07:44:50;12.20;99.90
10459;DHT22;5277;48.722;8.736;2023-03-23T07:47:16;12.30;99.90
10459;DHT22;5277;48.722;8.736;2023-03-23T07:49:43;12.30;99.90
10459;DHT22;5277;48.722;8.736;2023-03-23T07:52:08;12.40;99.90
10459;DHT22;5277;48.722;8.736;2023-03-23T07:54:36;12.50;99.90
10459;DHT22;5277;48.722;8.736;2023-03-23T07:57:02;12.50;99.90
10459;DHT22;5277;48.722;8.736;2023-03-23T07:59:28;12.50;99.90
10459;DHT22;5277;48.722;8.736;2023-03-23T08:01:53;12.60;99.90
10459;DHT22;5277;48.722;8.736;2023-03-23T08:04:19;12.70;99.90
10459;DHT22;5277;48.722;8.736;2023-03-23T08:06:44;12.70;99.90
10459;DHT22;5277;48.722;8.736;2023-03-23T08:09:10;12.80;99.90
10459;DHT22;5277;48.722;8.736;2023-03-23T08:11:37;12.80;99.90
10459;DHT22;5277;48.722;8.736;2023-03-23T08:14:03;12.90;99.90
10459;DHT22;5277;48.722;8.736;2023-03-23T08:16:29;12.90;99.90
10459;DHT22;5277;48.722;8.736;2023-03-23T08:18:55;13.00;99.90
10459;DHT22;5277;48.722;8.736;2023-03-23T08:21:22;13.00;99.90
10459;DHT22;5277;48.722;8.736;2023-03-23T08:23:48;13.10;99.90
10459;DHT22;5277;48.722;8.736;2023-03-23T08:26:14;13.20;99.90
10459;DHT22;5277;48.722;8.736;2023-03-23T08:28:41;13.20;99.90
10459;DHT22;5277;48.722;8.736;2023-03-23T08:31:10;13.20;99.90
10459;DHT22;5277;48.722;8.736;2023-03-23T08:33:37;13.30;99.90
10459;DHT22;5277;48.722;8.736;2023-03-23T08:36:03;13.40;99.90
10459;DHT22;5277;48.722;8.736;2023-03-23T08:38:29;13.40;99.90
10459;DHT22;5277;48.722;8.736;2023-03-23T08:41:00;13.40;99.90
10459;DHT22;5277;48.722;8.736;2023-03-23T08:43:26;13.40;99.90
10459;DHT22;5277;48.722;8.736;2023-03-23T08:45:53;13.40;99.90
10459;DHT22;5277;48.722;8.736;2023-03-23T08:48:19;13.30;99.90
10459;DHT22;5277;48.722;8.736;2023-03-23T08:50:45;13.40;99.90
10459;DHT22;5277;48.722;8.736;2023-03-23T08:53:10;13.40;99.90
10459;DHT22;5277;48.722;8.736;2023-03-23T08:55:36;13.30;99.90
10459;DHT22;5277;48.722;8.736;2023-03-23T08:58:02;13.40;99.90
10459;DHT22;5277;48.722;8.736;2023-03-23T09:00:29;13.30;99.90
10459;DHT22;5277;48.722;8.736;2023-03-23T09:02:54;13.40;99.90
10459;DHT22;5277;48.722;8.736;2023-03-23T09:05:24;13.50;99.90
10459;DHT22;5277;48.722;8.736;2023-03-23T09:07:52;13.50;99.90
10459;DHT22;5277;48.722;8.736;2023-03-23T09:10:18;13.50;99.90
10459;DHT22;5277;48.722;8.736;2023-03-23T09:12:46;13.60;99.90
10459;DHT22;5277;48.722;8.736;2023-03-23T09:15:16;13.60;99.90
10459;DHT22;5277;48.722;8.736;2023-03-23T09:17:47;13.60;99.90
10459;DHT22;5277;48.722;8.736;2023-03-23T09:20:15;13.70;99.90
10459;DHT22;5277;48.722;8.736;2023-03-23T09:22:44;13.80;99.90
10459;DHT22;5277;48.722;8.736;2023-03-23T09:25:12;13.90;99.90
10459;DHT22;5277;48.722;8.736;2023-03-23T09:27:39;13.90;99.90
10459;DHT22;5277;48.722;8.736;2023-03-23T09:30:11;14.00;99.90
10459;DHT22;5277;48.722;8.736;2023-03-23T09:32:37;14.10;99.90
10459;DHT22;5277;48.722;8.736;2023-03-23T09:35:05;14.20;99.90
10459;DHT22;5277;48.722;8.736;2023-03-23T09:37:35;14.30;99.90
10459;DHT22;5277;48.722;8.736;2023-03-23T09:40:06;14.40;99.90
10459;DHT22;5277;48.722;8.736;2023-03-23T09:42:41;14.60;99.90
10459;DHT22;5277;48.722;8.736;2023-03-23T09:45:28;14.80;99.90
10459;DHT22;5277;48.722;8.736;2023-03-23T09:50:43;15.60;99.90
10459;DHT22;5277;48.722;8.736;2023-03-23T09:53:29;15.90;99.90
10459;DHT22;5277;48.722;8.736;2023-03-23T09:56:08;16.20;99.90
10459;DHT22;5277;48.722;8.736;2023-03-23T10:01:19;16.50;99.90
10459;DHT22;5277;48.722;8.736;2023-03-23T10:03:46;16.80;99.90
10459;DHT22;5277;48.722;8.736;2023-03-23T10:06:15;16.90;99.70
10459;DHT22;5277;48.722;8.736;2023-03-23T10:08:57;17.10;99.00
10459;DHT22;5277;48.722;8.736;2023-03-23T10:14:22;17.50;98.40
10459;DHT22;5277;48.722;8.736;2023-03-23T10:17:08;17.60;98.10
10459;DHT22;5277;48.722;8.736;2023-03-23T10:19:58;17.60;98.00
10459;DHT22;5277;48.722;8.736;2023-03-23T10:22:33;17.60;97.60
10459;DHT22;5277;48.722;8.736;2023-03-23T10:30:35;17.80;98.00
10459;DHT22;5277;48.722;8.736;2023-03-23T10:36:20;18.30;96.20
10459;DHT22;5277;48.722;8.736;2023-03-23T10:38:44;18.50;96.00
10459;DHT22;5277;48.722;8.736;2023-03-23T10:41:16;18.60;95.60
10459;DHT22;5277;48.722;8.736;2023-03-23T10:43:44;18.60;95.20
10459;DHT22;5277;48.722;8.736;2023-03-23T10:48:48;18.70;95.40
10459;DHT22;5277;48.722;8.736;2023-03-23T10:51:17;18.70;95.80
10459;DHT22;5277;48.722;8.736;2023-03-23T10:53:49;18.60;95.80
10459;DHT22;5277;48.722;8.736;2023-03-23T10:56:38;18.60;96.20
10459;DHT22;5277;48.722;8.736;2023-03-23T10:59:17;18.50;96.10
10459;DHT22;5277;48.722;8.736;2023-03-23T11:01:48;18.20;96.50
10459;DHT22;5277;48.722;8.736;2023-03-23T11:04:17;17.90;96.60
10459;DHT22;5277;48.722;8.736;2023-03-23T11:06:46;17.60;97.20
10459;DHT22;5277;48.722;8.736;2023-03-23T11:09:18;17.40;97.80
10459;DHT22;5277;48.722;8.736;2023-03-23T11:11:55;17.30;98.80
10459;DHT22;5277;48.722;8.736;2023-03-23T11:14:29;17.20;98.40
10459;DHT22;5277;48.722;8.736;2023-03-23T11:17:00;17.40;98.90
10459;DHT22;5277;48.722;8.736;2023-03-23T11:19:32;17.40;99.00
10459;DHT22;5277;48.722;8.736;2023-03-23T11:22:07;17.60;98.60
10459;DHT22;5277;48.722;8.736;2023-03-23T11:24:40;17.80;97.70
10459;DHT22;5277;48.722;8.736;2023-03-23T11:27:07;18.00;97.70
10459;DHT22;5277;48.722;8.736;2023-03-23T11:29:34;18.20;97.60
10459;DHT22;5277;48.722;8.736;2023-03-23T11:34:35;18.60;96.90
10459;DHT22;5277;48.722;8.736;2023-03-23T11:37:21;18.70;96.50
10459;DHT22;5277;48.722;8.736;2023-03-23T11:39:58;18.70;95.60
10459;DHT22;5277;48.722;8.736;2023-03-23T11:42:26;18.80;95.40
10459;DHT22;5277;48.722;8.736;2023-03-23T11:45:39;18.70;95.90
10459;DHT22;5277;48.722;8.736;2023-03-23T11:50:52;18.90;95.20
10459;DHT22;5277;48.722;8.736;2023-03-23T11:56:12;19.20;95.30
10459;DHT22;5277;48.722;8.736;2023-03-23T11:58:39;19.50;94.90
10459;DHT22;5277;48.722;8.736;2023-03-23T12:01:30;19.80;93.70
10459;DHT22;5277;48.722;8.736;2023-03-23T12:04:24;19.80;93.20
10459;DHT22;5277;48.722;8.736;2023-03-23T12:17:05;18.90;92.80
10459;DHT22;5277;48.722;8.736;2023-03-23T12:27:44;18.20;94.90
10459;DHT22;5277;48.722;8.736;2023-03-23T12:33:28;19.00;93.50
10459;DHT22;5277;48.722;8.736;2023-03-23T12:49:12;20.30;90.70
10459;DHT22;5277;48.722;8.736;2023-03-23T12:51:48;20.00;89.30
10459;DHT22;5277;48.722;8.736;2023-03-23T12:54:27;19.70;90.00
10459;DHT22;5277;48.722;8.736;2023-03-23T12:57:10;19.30;90.10
10459;DHT22;5277;48.722;8.736;2023-03-23T12:59:39;18.90;90.10
10459;DHT22;5277;48.722;8.736;2023-03-23T13:02:24;18.70;90.50
10459;DHT22;5277;48.722;8.736;2023-03-23T13:05:10;18.30;91.10
10459;DHT22;5277;48.722;8.736;2023-03-23T13:07:43;18.00;91.30
10459;DHT22;5277;48.722;8.736;2023-03-23T13:12:46;17.80;91.90
10459;DHT22;5277;48.722;8.736;2023-03-23T13:18:43;17.90;93.00
10459;DHT22;5277;48.722;8.736;2023-03-23T13:21:15;17.90;91.80
10459;DHT22;5277;48.722;8.736;2023-03-23T13:23:49;18.00;91.90
10459;DHT22;5277;48.722;8.736;2023-03-23T13:26:19;17.90;91.50
10459;DHT22;5277;48.722;8.736;2023-03-23T13:28:57;17.90;91.80
10459;DHT22;5277;48.722;8.736;2023-03-23T13:31:26;17.90;92.00
10459;DHT22;5277;48.722;8.736;2023-03-23T13:36:57;17.90;92.10
10459;DHT22;5277;48.722;8.736;2023-03-23T13:49:54;17.80;92.10
10459;DHT22;5277;48.722;8.736;2023-03-23T13:54:50;17.70;92.50
10459;DHT22;5277;48.722;8.736;2023-03-23T13:57:35;17.80;92.90
10459;DHT22;5277;48.722;8.736;2023-03-23T14:00:25;17.80;92.30
10459;DHT22;5277;48.722;8.736;2023-03-23T14:02:58;17.70;93.10
10459;DHT22;5277;48.722;8.736;2023-03-23T14:05:34;17.60;92.60
10459;DHT22;5277;48.722;8.736;2023-03-23T14:10:39;17.50;92.50
10459;DHT22;5277;48.722;8.736;2023-03-23T14:13:15;17.50;92.80
10459;DHT22;5277;48.722;8.736;2023-03-23T14:16:01;17.50;93.10
10459;DHT22;5277;48.722;8.736;2023-03-23T14:18:38;17.60;93.40
10459;DHT22;5277;48.722;8.736;2023-03-23T14:21:05;17.50;92.50
10459;DHT22;5277;48.722;8.736;2023-03-23T14:23:33;17.50;92.70
10459;DHT22;5277;48.722;8.736;2023-03-23T14:26:02;17.60;92.80
10459;DHT22;5277;48.722;8.736;2023-03-23T14:28:37;17.70;92.90
10459;DHT22;5277;48.722;8.736;2023-03-23T14:31:03;17.70;92.60
10459;DHT22;5277;48.722;8.736;2023-03-23T14:33:29;17.70;92.40
10459;DHT22;5277;48.722;8.736;2023-03-23T14:35:58;17.70;92.70
10459;DHT22;5277;48.722;8.736;2023-03-23T14:38:25;17.60;92.50
10459;DHT22;5277;48.722;8.736;2023-03-23T14:41:03;17.70;93.00
10459;DHT22;5277;48.722;8.736;2023-03-23T14:43:30;17.80;92.60
10459;DHT22;5277;48.722;8.736;2023-03-23T14:45:58;17.90;91.90
10459;DHT22;5277;48.722;8.736;2023-03-23T14:48:25;17.90;92.40
10459;DHT22;5277;48.722;8.736;2023-03-23T14:51:02;17.80;92.10
10459;DHT22;5277;48.722;8.736;2023-03-23T14:53:37;17.80;91.50
10459;DHT22;5277;48.722;8.736;2023-03-23T14:56:11;17.90;91.80
10459;DHT22;5277;48.722;8.736;2023-03-23T14:58:37;17.90;91.20
10459;DHT22;5277;48.722;8.736;2023-03-23T15:01:13;18.00;91.30
10459;DHT22;5277;48.722;8.736;2023-03-23T15:04:29;18.00;91.40
10459;DHT22;5277;48.722;8.736;2023-03-23T15:06:33;18.00;91.00
10459;DHT22;5277;48.722;8.736;2023-03-23T15:09:02;18.00;91.00
10459;DHT22;5277;48.722;8.736;2023-03-23T15:11:32;18.00;90.90
10459;DHT22;5277;48.722;8.736;2023-03-23T15:14:02;18.00;90.00
10459;DHT22;5277;48.722;8.736;2023-03-23T15:16:33;18.00;90.20
10459;DHT22;5277;48.722;8.736;2023-03-23T15:19:02;18.00;89.30
10459;DHT22;5277;48.722;8.736;2023-03-23T15:21:31;18.10;88.70
10459;DHT22;5277;48.722;8.736;2023-03-23T15:24:00;18.00;89.10
10459;DHT22;5277;48.722;8.736;2023-03-23T15:26:34;18.20;89.80
10459;DHT22;5277;48.722;8.736;2023-03-23T15:29:17;18.20;89.90
10459;DHT22;5277;48.722;8.736;2023-03-23T15:31:53;18.00;87.60
10459;DHT22;5277;48.722;8.736;2023-03-23T15:34:34;17.90;88.10
10459;DHT22;5277;48.722;8.736;2023-03-23T15:37:15;17.90;87.40
10459;DHT22;5277;48.722;8.736;2023-03-23T15:39:44;17.80;87.70
10459;DHT22;5277;48.722;8.736;2023-03-23T15:42:30;17.80;87.20
10459;DHT22;5277;48.722;8.736;2023-03-23T15:47:45;17.80;85.50
10459;DHT22;5277;48.722;8.736;2023-03-23T15:50:16;17.80;85.10
10459;DHT22;5277;48.722;8.736;2023-03-23T15:52:43;17.70;84.20
10459;DHT22;5277;48.722;8.736;2023-03-23T15:55:23;17.70;84.80
10459;DHT22;5277;48.722;8.736;2023-03-23T15:57:50;17.60;85.20
10459;DHT22;5277;48.722;8.736;2023-03-23T16:00:17;17.50;85.30
10459;DHT22;5277;48.722;8.736;2023-03-23T16:02:46;17.50;85.20
10459;DHT22;5277;48.722;8.736;2023-03-23T16:05:12;17.50;83.70
10459;DHT22;5277;48.722;8.736;2023-03-23T16:07:38;17.40;84.30
10459;DHT22;5277;48.722;8.736;2023-03-23T16:10:05;17.30;82.60
10459;DHT22;5277;48.722;8.736;2023-03-23T16:12:32;17.20;83.30
10459;DHT22;5277;48.722;8.736;2023-03-23T16:14:58;17.20;84.20
10459;DHT22;5277;48.722;8.736;2023-03-23T16:17:24;17.10;84.00
10459;DHT22;5277;48.722;8.736;2023-03-23T16:19:50;17.10;83.50
10459;DHT22;5277;48.722;8.736;2023-03-23T16:22:16;17.10;82.50
10459;DHT22;5277;48.722;8.736;2023-03-23T16:24:41;17.00;83.70
10459;DHT22;5277;48.722;8.736;2023-03-23T16:27:09;17.10;84.00
10459;DHT22;5277;48.722;8.736;2023-03-23T16:29:35;17.00;84.50
10459;DHT22;5277;48.722;8.736;2023-03-23T16:32:01;17.00;83.90
10459;DHT22;5277;48.722;8.736;2023-03-23T16:34:26;17.10;86.10
10459;DHT22;5277;48.722;8.736;2023-03-23T16:36:54;17.00;86.80
10459;DHT22;5277;48.722;8.736;2023-03-23T16:39:20;16.90;86.80
10459;DHT22;5277;48.722;8.736;2023-03-23T16:41:46;16.90;86.70
10459;DHT22;5277;48.722;8.736;2023-03-23T16:44:12;16.90;86.30
10459;DHT22;5277;48.722;8.736;2023-03-23T16:46:38;16.90;88.10
10459;DHT22;5277;48.722;8.736;2023-03-23T16:49:03;16.80;86.60
10459;DHT22;5277;48.722;8.736;2023-03-23T16:51:29;16.80;86.70
10459;DHT22;5277;48.722;8.736;2023-03-23T16:53:55;16.60;87.10
10459;DHT22;5277;48.722;8.736;2023-03-23T16:56:20;16.60;89.30
10459;DHT22;5277;48.722;8.736;2023-03-23T16:58:46;16.50;88.60
10459;DHT22;5277;48.722;8.736;2023-03-23T17:01:11;16.50;90.50
10459;DHT22;5277;48.722;8.736;2023-03-23T17:03:38;16.40;90.50
10459;DHT22;5277;48.722;8.736;2023-03-23T17:06:04;16.40;90.90
10459;DHT22;5277;48.722;8.736;2023-03-23T17:08:30;16.20;91.30
10459;DHT22;5277;48.722;8.736;2023-03-23T17:10:56;16.10;91.40
10459;DHT22;5277;48.722;8.736;2023-03-23T17:13:22;16.10;91.20
10459;DHT22;5277;48.722;8.736;2023-03-23T17:15:51;16.00;91.60
10459;DHT22;5277;48.722;8.736;2023-03-23T17:18:17;15.90;92.10
10459;DHT22;5277;48.722;8.736;2023-03-23T17:20:44;15.90;91.80
10459;DHT22;5277;48.722;8.736;2023-03-23T17:23:09;15.80;91.70
10459;DHT22;5277;48.722;8.736;2023-03-23T17:25:35;15.70;91.50
10459;DHT22;5277;48.722;8.736;2023-03-23T17:28:01;15.80;91.70
10459;DHT22;5277;48.722;8.736;2023-03-23T17:30:27;15.80;91.30
10459;DHT22;5277;48.722;8.736;2023-03-23T17:32:53;15.70;91.80
10459;DHT22;5277;48.722;8.736;2023-03-23T17:35:19;15.70;91.90
10459;DHT22;5277;48.722;8.736;2023-03-23T17:37:44;15.60;91.90
10459;DHT22;5277;48.722;8.736;2023-03-23T17:40:10;15.60;92.30